Terminal Aerodrome Forecast
Issued by NWS

Home | Current Version | Previous Version | Text Only | Print | Product List | Glossary On
Versions: 1 2 3 4 5 6 7 8 9 10 11 12 13 14 15 16 17 18 19 20 21
264
FTUS43 KDLH 250537
TAFBRD
TAF
KBRD 250537Z 2506/2606 06003KT P6SM OVC021
     FM250800 08005KT P6SM OVC017
     FM252000 10009KT P6SM SCT020
     FM260200 08006KT P6SM OVC018=

USA.gov is the U.S. government's official web portal to all federal, state and local government web resources and services.